sensor_id;sensor_type;location;lat;lon;timestamp;pressure;altitude;pressure_sealevel;temperature;humidity
76404;BME280;65232;48.358;2.122;2024-03-22T00:00:23;101686.09;;;9.89;100.00
76404;BME280;65232;48.358;2.122;2024-03-22T00:00:49;101675.50;;;9.87;100.00
76404;BME280;65232;48.358;2.122;2024-03-22T00:01:14;101671.88;;;9.88;100.00
76404;BME280;65232;48.358;2.122;2024-03-22T00:01:39;101676.47;;;9.86;100.00
76404;BME280;65232;48.358;2.122;2024-03-22T00:02:05;101667.19;;;9.92;100.00
76404;BME280;65232;48.358;2.122;2024-03-22T00:02:31;101676.34;;;9.88;100.00
76404;BME280;65232;48.358;2.122;2024-03-22T00:02:56;101676.34;;;9.88;100.00
76404;BME280;65232;48.358;2.122;2024-03-22T00:03:22;101666.00;;;9.96;100.00
76404;BME280;65232;48.358;2.122;2024-03-22T00:03:47;101670.91;;;9.89;100.00
76404;BME280;65232;48.358;2.122;2024-03-22T00:04:13;101666.63;;;9.87;100.00
76404;BME280;65232;48.358;2.122;2024-03-22T00:04:39;101659.66;;;9.84;100.00
76404;BME280;65232;48.358;2.122;2024-03-22T00:05:04;101661.75;;;9.94;100.00
76404;BME280;65232;48.358;2.122;2024-03-22T00:05:30;101667.94;;;9.94;100.00
76404;BME280;65232;48.358;2.122;2024-03-22T00:05:55;101668.25;;;9.89;100.00
76404;BME280;65232;48.358;2.122;2024-03-22T00:06:21;101664.72;;;9.89;100.00
76404;BME280;65232;48.358;2.122;2024-03-22T00:06:48;101664.91;;;9.86;100.00
76404;BME280;65232;48.358;2.122;2024-03-22T00:07:13;101667.56;;;9.86;100.00
76404;BME280;65232;48.358;2.122;2024-03-22T00:07:39;101664.72;;;9.89;100.00
76404;BME280;65232;48.358;2.122;2024-03-22T00:08:05;101666.53;;;9.88;100.00
76404;BME280;65232;48.358;2.122;2024-03-22T00:08:30;101663.75;;;9.90;100.00
76404;BME280;65232;48.358;2.122;2024-03-22T00:08:55;101663.75;;;9.90;100.00
76404;BME280;65232;48.358;2.122;2024-03-22T00:09:21;101663.94;;;9.87;100.00
76404;BME280;65232;48.358;2.122;2024-03-22T00:09:46;101667.66;;;9.84;100.00
76404;BME280;65232;48.358;2.122;2024-03-22T00:10:12;101662.84;;;9.77;100.00
76404;BME280;65232;48.358;2.122;2024-03-22T00:10:38;101667.44;;;9.75;100.00
76404;BME280;65232;48.358;2.122;2024-03-22T00:11:03;101666.66;;;9.73;100.00
76404;BME280;65232;48.358;2.122;2024-03-22T00:11:29;101666.56;;;9.74;100.00
76404;BME280;65232;48.358;2.122;2024-03-22T00:11:55;101667.63;;;9.72;100.00
76404;BME280;65232;48.358;2.122;2024-03-22T00:12:20;101670.28;;;9.72;100.00
76404;BME280;65232;48.358;2.122;2024-03-22T00:12:45;101667.72;;;9.70;100.00
76404;BME280;65232;48.358;2.122;2024-03-22T00:13:11;101670.81;;;9.64;100.00
76404;BME280;65232;48.358;2.122;2024-03-22T00:13:36;101667.91;;;9.67;100.00
76404;BME280;65232;48.358;2.122;2024-03-22T00:14:02;101666.47;;;9.76;100.00
76404;BME280;65232;48.358;2.122;2024-03-22T00:14:28;101669.25;;;9.74;100.00
76404;BME280;65232;48.358;2.122;2024-03-22T00:14:53;101662.28;;;9.72;100.00
76404;BME280;65232;48.358;2.122;2024-03-22T00:15:19;101664.34;;;9.81;100.00
76404;BME280;65232;48.358;2.122;2024-03-22T00:15:45;101659.22;;;9.78;100.00
76404;BME280;65232;48.358;2.122;2024-03-22T00:16:10;101663.72;;;9.77;100.00
76404;BME280;65232;48.358;2.122;2024-03-22T00:16:36;101665.63;;;9.75;100.00
76404;BME280;65232;48.358;2.122;2024-03-22T00:17:02;101659.00;;;9.81;100.00
76404;BME280;65232;48.358;2.122;2024-03-22T00:17:27;101662.75;;;9.78;100.00
76404;BME280;65232;48.358;2.122;2024-03-22T00:17:53;101664.56;;;9.78;100.00
76404;BME280;65232;48.358;2.122;2024-03-22T00:18:18;101666.47;;;9.76;100.00
76404;BME280;65232;48.358;2.122;2024-03-22T00:18:44;101666.75;;;9.71;100.00
76404;BME280;65232;48.358;2.122;2024-03-22T00:19:09;101666.88;;;9.70;100.00
76404;BME280;65232;48.358;2.122;2024-03-22T00:19:35;101665.16;;;9.69;100.00
76404;BME280;65232;48.358;2.122;2024-03-22T00:20:00;101669.72;;;9.67;100.00
76404;BME280;65232;48.358;2.122;2024-03-22T00:20:26;101669.16;;;9.76;100.00
76404;BME280;65232;48.358;2.122;2024-03-22T00:20:51;101667.44;;;9.75;100.00
76404;BME280;65232;48.358;2.122;2024-03-22T00:21:16;101667.44;;;9.75;100.00
76404;BME280;65232;48.358;2.122;2024-03-22T00:21:42;101662.00;;;9.76;100.00
76404;BME280;65232;48.358;2.122;2024-03-22T00:22:07;101666.06;;;9.82;100.00
76404;BME280;65232;48.358;2.122;2024-03-22T00:22:33;101666.88;;;9.70;100.00
76404;BME280;65232;48.358;2.122;2024-03-22T00:22:58;101672.31;;;9.68;100.00
76404;BME280;65232;48.358;2.122;2024-03-22T00:23:24;101671.16;;;9.72;100.00
76404;BME280;65232;48.358;2.122;2024-03-22T00:23:49;101665.25;;;9.67;100.00
76404;BME280;65232;48.358;2.122;2024-03-22T00:24:14;101669.63;;;9.68;100.00
76404;BME280;65232;48.358;2.122;2024-03-22T00:24:40;101672.41;;;9.67;100.00
76404;BME280;65232;48.358;2.122;2024-03-22T00:25:06;101667.28;;;9.64;100.00
76404;BME280;65232;48.358;2.122;2024-03-22T00:25:31;101663.63;;;9.65;100.00
76404;BME280;65232;48.358;2.122;2024-03-22T00:25:57;101663.75;;;9.63;100.00
76404;BME280;65232;48.358;2.122;2024-03-22T00:26:23;101664.59;;;9.64;100.00
76404;BME280;65232;48.358;2.122;2024-03-22T00:26:48;101661.19;;;9.62;100.00
76404;BME280;65232;48.358;2.122;2024-03-22T00:27:14;101658.94;;;9.68;100.00
76404;BME280;65232;48.358;2.122;2024-03-22T00:27:40;101661.53;;;9.70;100.00
76404;BME280;65232;48.358;2.122;2024-03-22T00:28:05;101657.44;;;9.64;100.00
76404;BME280;65232;48.358;2.122;2024-03-22T00:28:30;101660.41;;;9.60;100.00
76404;BME280;65232;48.358;2.122;2024-03-22T00:28:56;101660.50;;;9.58;100.00
76404;BME280;65232;48.358;2.122;2024-03-22T00:29:23;101657.84;;;9.58;100.00
76404;BME280;65232;48.358;2.122;2024-03-22T00:29:48;101658.78;;;9.57;100.00
76404;BME280;65232;48.358;2.122;2024-03-22T00:30:14;101659.47;;;9.61;100.00
76404;BME280;65232;48.358;2.122;2024-03-22T00:30:40;101654.31;;;9.58;100.00
76404;BME280;65232;48.358;2.122;2024-03-22T00:31:06;101663.19;;;9.58;100.00
76404;BME280;65232;48.358;2.122;2024-03-22T00:31:31;101654.13;;;9.61;100.00
76404;BME280;65232;48.358;2.122;2024-03-22T00:31:57;101659.25;;;9.64;100.00
76404;BME280;65232;48.358;2.122;2024-03-22T00:32:22;101657.53;;;9.63;100.00
76404;BME280;65232;48.358;2.122;2024-03-22T00:32:48;101658.50;;;9.62;100.00
76404;BME280;65232;48.358;2.122;2024-03-22T00:33:13;101653.78;;;9.65;100.00
76404;BME280;65232;48.358;2.122;2024-03-22T00:33:38;101657.44;;;9.64;100.00
76404;BME280;65232;48.358;2.122;2024-03-22T00:34:04;101656.47;;;9.65;100.00
76404;BME280;65232;48.358;2.122;2024-03-22T00:34:29;101654.88;;;9.63;100.00
76404;BME280;65232;48.358;2.122;2024-03-22T00:34:55;101657.31;;;9.66;100.00
76404;BME280;65232;48.358;2.122;2024-03-22T00:35:20;101661.81;;;9.65;100.00
76404;BME280;65232;48.358;2.122;2024-03-22T00:35:46;101661.72;;;9.67;100.00
76404;BME280;65232;48.358;2.122;2024-03-22T00:36:11;101655.84;;;9.62;100.00
76404;BME280;65232;48.358;2.122;2024-03-22T00:36:36;101658.78;;;9.57;100.00
76404;BME280;65232;48.358;2.122;2024-03-22T00:37:02;101657.84;;;9.58;100.00
76404;BME280;65232;48.358;2.122;2024-03-22T00:37:27;101653.44;;;9.57;100.00
76404;BME280;65232;48.358;2.122;2024-03-22T00:37:53;101655.25;;;9.57;100.00
76404;BME280;65232;48.358;2.122;2024-03-22T00:38:18;101651.81;;;9.54;100.00
76404;BME280;65232;48.358;2.122;2024-03-22T00:38:44;101659.84;;;9.54;100.00
76404;BME280;65232;48.358;2.122;2024-03-22T00:39:09;101646.47;;;9.54;100.00
76404;BME280;65232;48.358;2.122;2024-03-22T00:39:35;101648.38;;;9.52;100.00
76404;BME280;65232;48.358;2.122;2024-03-22T00:40:01;101654.59;;;9.53;100.00
76404;BME280;65232;48.358;2.122;2024-03-22T00:40:27;101650.31;;;9.50;100.00
76404;BME280;65232;48.358;2.122;2024-03-22T00:40:52;101654.16;;;9.46;100.00
76404;BME280;65232;48.358;2.122;2024-03-22T00:41:18;101653.28;;;9.46;100.00
76404;BME280;65232;48.358;2.122;2024-03-22T00:41:43;101654.91;;;9.48;100.00
76404;BME280;65232;48.358;2.122;2024-03-22T00:42:09;101650.63;;;9.46;100.00
76404;BME280;65232;48.358;2.122;2024-03-22T00:42:34;101650.31;;;9.50;100.00
76404;BME280;65232;48.358;2.122;2024-03-22T00:43:00;101647.09;;;9.45;100.00
76404;BME280;65232;48.358;2.122;2024-03-22T00:43:25;101645.09;;;9.49;100.00
76404;BME280;65232;48.358;2.122;2024-03-22T00:43:50;101648.50;;;9.51;100.00
76404;BME280;65232;48.358;2.122;2024-03-22T00:44:16;101644.75;;;9.53;100.00
76404;BME280;65232;48.358;2.122;2024-03-22T00:44:41;101648.72;;;9.48;100.00
76404;BME280;65232;48.358;2.122;2024-03-22T00:45:07;101644.41;;;9.45;100.00
76404;BME280;65232;48.358;2.122;2024-03-22T00:45:32;101647.84;;;9.47;100.00
76404;BME280;65232;48.358;2.122;2024-03-22T00:45:58;101648.91;;;9.45;100.00
76404;BME280;65232;48.358;2.122;2024-03-22T00:46:24;101637.94;;;9.49;100.00
76404;BME280;65232;48.358;2.122;2024-03-22T00:46:49;101644.00;;;9.51;100.00
76404;BME280;65232;48.358;2.122;2024-03-22T00:47:14;101649.25;;;9.53;100.00
76404;BME280;65232;48.358;2.122;2024-03-22T00:47:40;101643.53;;;9.59;100.00
76404;BME280;65232;48.358;2.122;2024-03-22T00:48:05;101646.47;;;9.54;100.00
76404;BME280;65232;48.358;2.122;2024-03-22T00:48:31;101641.66;;;9.47;100.00
76404;BME280;65232;48.358;2.122;2024-03-22T00:48:57;101640.88;;;9.45;100.00
76404;BME280;65232;48.358;2.122;2024-03-22T00:49:23;101648.13;;;9.43;100.00
76404;BME280;65232;48.358;2.122;2024-03-22T00:49:49;101643.84;;;9.40;100.00
76404;BME280;65232;48.358;2.122;2024-03-22T00:50:15;101645.66;;;9.40;100.00
76404;BME280;65232;48.358;2.122;2024-03-22T00:50:40;101643.28;;;9.35;100.00
76404;BME280;65232;48.358;2.122;2024-03-22T00:51:06;101647.56;;;9.38;100.00
76404;BME280;65232;48.358;2.122;2024-03-22T00:51:32;101647.88;;;9.33;100.00
76404;BME280;65232;48.358;2.122;2024-03-22T00:51:57;101643.59;;;9.31;100.00
76404;BME280;65232;48.358;2.122;2024-03-22T00:52:23;101643.19;;;9.37;100.00
76404;BME280;65232;48.358;2.122;2024-03-22T00:52:50;101644.63;;;9.28;100.00
76404;BME280;65232;48.358;2.122;2024-03-22T00:53:16;101645.50;;;9.29;100.00
76404;BME280;65232;48.358;2.122;2024-03-22T00:53:42;101643.28;;;9.35;100.00
76404;BME280;65232;48.358;2.122;2024-03-22T00:54:07;101641.78;;;9.31;100.00
76404;BME280;65232;48.358;2.122;2024-03-22T00:54:33;101641.88;;;9.30;100.00
76404;BME280;65232;48.358;2.122;2024-03-22T00:54:58;101644.72;;;9.27;100.00
76404;BME280;65232;48.358;2.122;2024-03-22T00:55:24;101637.28;;;9.32;100.00
76404;BME280;65232;48.358;2.122;2024-03-22T00:55:49;101641.97;;;9.28;100.00
76404;BME280;65232;48.358;2.122;2024-03-22T00:56:16;101641.97;;;9.28;100.00
76404;BME280;65232;48.358;2.122;2024-03-22T00:56:41;101636.44;;;9.31;100.00
76404;BME280;65232;48.358;2.122;2024-03-22T00:57:07;101640.91;;;9.31;100.00
76404;BME280;65232;48.358;2.122;2024-03-22T00:57:32;101640.50;;;9.37;100.00
76404;BME280;65232;48.358;2.122;2024-03-22T00:57:58;101640.81;;;9.32;100.00
76404;BME280;65232;48.358;2.122;2024-03-22T00:58:23;101639.28;;;9.28;100.00
76404;BME280;65232;48.358;2.122;2024-03-22T00:58:49;101644.63;;;9.28;100.00
76404;BME280;65232;48.358;2.122;2024-03-22T00:59:14;101634.81;;;9.29;100.00
76404;BME280;65232;48.358;2.122;2024-03-22T00:59:40;101630.91;;;9.34;100.00
76404;BME280;65232;48.358;2.122;2024-03-22T01:00:05;101640.81;;;9.32;100.00
76404;BME280;65232;48.358;2.122;2024-03-22T01:00:31;101640.59;;;9.35;100.00
76404;BME280;65232;48.358;2.122;2024-03-22T01:00:56;101638.34;;;9.29;100.00
76404;BME280;65232;48.358;2.122;2024-03-22T01:01:22;101635.66;;;9.29;100.00
76404;BME280;65232;48.358;2.122;2024-03-22T01:01:48;101633.75;;;9.31;100.00
76404;BME280;65232;48.358;2.122;2024-03-22T01:02:13;101638.69;;;9.37;100.00
76404;BME280;65232;48.358;2.122;2024-03-22T01:02:39;101632.31;;;9.40;100.00
76404;BME280;65232;48.358;2.122;2024-03-22T01:03:04;101638.50;;;9.40;100.00
76404;BME280;65232;48.358;2.122;2024-03-22T01:03:30;101633.09;;;9.28;100.00
76404;BME280;65232;48.358;2.122;2024-03-22T01:03:56;101641.69;;;9.33;100.00
76404;BME280;65232;48.358;2.122;2024-03-22T01:04:21;101631.28;;;9.28;100.00
76404;BME280;65232;48.358;2.122;2024-03-22T01:04:47;101637.69;;;9.26;100.00
76404;BME280;65232;48.358;2.122;2024-03-22T01:05:13;101633.28;;;9.25;100.00
76404;BME280;65232;48.358;2.122;2024-03-22T01:05:39;101627.19;;;9.23;100.00
76404;BME280;65232;48.358;2.122;2024-03-22T01:06:05;101629.84;;;9.23;100.00
76404;BME280;65232;48.358;2.122;2024-03-22T01:06:31;101626.81;;;9.29;100.00
76404;BME280;65232;48.358;2.122;2024-03-22T01:06:56;101633.00;;;9.29;100.00
76404;BME280;65232;48.358;2.122;2024-03-22T01:07:22;101635.97;;;9.25;100.00
76404;BME280;65232;48.358;2.122;2024-03-22T01:07:47;101631.97;;;9.17;100.00
76404;BME280;65232;48.358;2.122;2024-03-22T01:08:12;101629.66;;;9.26;100.00
76404;BME280;65232;48.358;2.122;2024-03-22T01:08:38;101630.91;;;9.20;100.00
76404;BME280;65232;48.358;2.122;2024-03-22T01:09:03;101634.66;;;9.17;100.00
76404;BME280;65232;48.358;2.122;2024-03-22T01:09:29;101631.97;;;9.17;100.00
76404;BME280;65232;48.358;2.122;2024-03-22T01:09:54;101634.06;;;9.12;100.00
76404;BME280;65232;48.358;2.122;2024-03-22T01:10:20;101624.91;;;9.16;100.00
76404;BME280;65232;48.358;2.122;2024-03-22T01:10:45;101629.31;;;9.17;100.00
76404;BME280;65232;48.358;2.122;2024-03-22T01:11:11;101628.44;;;9.17;100.00
76404;BME280;65232;48.358;2.122;2024-03-22T01:11:36;101630.44;;;9.13;100.00
76404;BME280;65232;48.358;2.122;2024-03-22T01:12:02;101620.63;;;9.14;100.00
76404;BME280;65232;48.358;2.122;2024-03-22T01:12:27;101622.44;;;9.13;100.00
76404;BME280;65232;48.358;2.122;2024-03-22T01:12:53;101630.81;;;9.07;100.00
76404;BME280;65232;48.358;2.122;2024-03-22T01:13:18;101623.13;;;9.03;100.00
76404;BME280;65232;48.358;2.122;2024-03-22T01:13:43;101625.56;;;9.06;100.00
76404;BME280;65232;48.358;2.122;2024-03-22T01:14:09;101622.72;;;9.09;100.00
76404;BME280;65232;48.358;2.122;2024-03-22T01:14:35;101625.56;;;9.06;100.00
76404;BME280;65232;48.358;2.122;2024-03-22T01:15:00;101624.00;;;9.03;100.00
76404;BME280;65232;48.358;2.122;2024-03-22T01:15:26;101622.03;;;9.05;100.00
76404;BME280;65232;48.358;2.122;2024-03-22T01:15:51;101621.84;;;9.08;100.00
76404;BME280;65232;48.358;2.122;2024-03-22T01:16:17;101626.84;;;9.00;100.00
76404;BME280;65232;48.358;2.122;2024-03-22T01:16:43;101627.59;;;9.02;100.00
76404;BME280;65232;48.358;2.122;2024-03-22T01:17:08;101623.50;;;8.97;100.00
76404;BME280;65232;48.358;2.122;2024-03-22T01:17:34;101623.41;;;8.98;100.00
76404;BME280;65232;48.358;2.122;2024-03-22T01:17:59;101619.78;;;8.99;100.00
76404;BME280;65232;48.358;2.122;2024-03-22T01:18:25;101631.91;;;9.05;100.00
76404;BME280;65232;48.358;2.122;2024-03-22T01:18:50;101625.88;;;9.01;100.00
76404;BME280;65232;48.358;2.122;2024-03-22T01:19:16;101629.69;;;8.97;100.00
76404;BME280;65232;48.358;2.122;2024-03-22T01:19:41;101632.28;;;8.99;100.00
76404;BME280;65232;48.358;2.122;2024-03-22T01:20:07;101627.19;;;9.08;100.00
76404;BME280;65232;48.358;2.122;2024-03-22T01:20:32;101626.56;;;9.05;100.00
76404;BME280;65232;48.358;2.122;2024-03-22T01:20:58;101622.81;;;9.07;100.00
76404;BME280;65232;48.358;2.122;2024-03-22T01:21:23;101631.03;;;9.04;100.00
76404;BME280;65232;48.358;2.122;2024-03-22T01:21:50;101627.38;;;9.05;100.00
76404;BME280;65232;48.358;2.122;2024-03-22T01:22:17;101627.28;;;9.07;100.00
76404;BME280;65232;48.358;2.122;2024-03-22T01:22:43;101632.25;;;9.13;100.00
76404;BME280;65232;48.358;2.122;2024-03-22T01:23:08;101623.56;;;9.09;100.00
76404;BME280;65232;48.358;2.122;2024-03-22T01:23:34;101626.41;;;9.20;100.00
76404;BME280;65232;48.358;2.122;2024-03-22T01:23:59;101623.88;;;9.19;100.00
76404;BME280;65232;48.358;2.122;2024-03-22T01:24:24;101626.53;;;9.19;100.00
76404;BME280;65232;48.358;2.122;2024-03-22T01:24:50;101629.69;;;9.11;100.00
76404;BME280;65232;48.358;2.122;2024-03-22T01:25:15;101625.97;;;9.14;100.00
76404;BME280;65232;48.358;2.122;2024-03-22T01:25:41;101625.47;;;9.07;100.00
76404;BME280;65232;48.358;2.122;2024-03-22T01:26:07;101619.75;;;9.13;100.00
76404;BME280;65232;48.358;2.122;2024-03-22T01:26:32;101621.75;;;9.10;100.00
76404;BME280;65232;48.358;2.122;2024-03-22T01:26:57;101627.00;;;9.11;100.00
76404;BME280;65232;48.358;2.122;2024-03-22T01:27:23;101627.19;;;9.08;100.00
76404;BME280;65232;48.358;2.122;2024-03-22T01:27:48;101626.44;;;9.06;100.00
76404;BME280;65232;48.358;2.122;2024-03-22T01:28:14;101616.72;;;9.05;100.00
76404;BME280;65232;48.358;2.122;2024-03-22T01:28:40;101622.03;;;9.05;100.00
76404;BME280;65232;48.358;2.122;2024-03-22T01:29:05;101617.56;;;9.06;100.00
76404;BME280;65232;48.358;2.122;2024-03-22T01:29:31;101624.72;;;9.05;100.00
76404;BME280;65232;48.358;2.122;2024-03-22T01:29:56;101607.47;;;8.97;100.00
76404;BME280;65232;48.358;2.122;2024-03-22T01:30:22;101619.88;;;9.12;100.00
76404;BME280;65232;48.358;2.122;2024-03-22T01:30:48;101625.47;;;9.07;100.00
76404;BME280;65232;48.358;2.122;2024-03-22T01:31:13;101616.44;;;9.10;100.00
76404;BME280;65232;48.358;2.122;2024-03-22T01:31:39;101622.16;;;9.04;100.00
76404;BME280;65232;48.358;2.122;2024-03-22T01:32:04;101618.66;;;9.03;100.00
76404;BME280;65232;48.358;2.122;2024-03-22T01:32:30;101616.53;;;8.94;100.00
76404;BME280;65232;48.358;2.122;2024-03-22T01:32:56;101618.25;;;8.95;100.00
76404;BME280;65232;48.358;2.122;2024-03-22T01:33:21;101614.63;;;8.96;100.00
76404;BME280;65232;48.358;2.122;2024-03-22T01:33:47;101612.38;;;8.90;100.00
76404;BME280;65232;48.358;2.122;2024-03-22T01:34:12;101607.31;;;8.86;100.00
76404;BME280;65232;48.358;2.122;2024-03-22T01:34:38;101613.59;;;8.84;100.00
76404;BME280;65232;48.358;2.122;2024-03-22T01:35:04;101609.31;;;8.82;100.00
76404;BME280;65232;48.358;2.122;2024-03-22T01:35:29;101615.69;;;8.79;100.00
76404;BME280;65232;48.358;2.122;2024-03-22T01:35:55;101609.31;;;8.82;100.00
76404;BME280;65232;48.358;2.122;2024-03-22T01:36:20;101614.06;;;8.77;100.00
76404;BME280;65232;48.358;2.122;2024-03-22T01:36:46;101614.28;;;8.74;100.00
76404;BME280;65232;48.358;2.122;2024-03-22T01:37:11;101605.78;;;8.81;100.00
76404;BME280;65232;48.358;2.122;2024-03-22T01:37:36;101608.25;;;8.84;100.00
76404;BME280;65232;48.358;2.122;2024-03-22T01:38:02;101616.53;;;8.80;100.00
76404;BME280;65232;48.358;2.122;2024-03-22T01:38:27;101605.97;;;8.78;100.00
76404;BME280;65232;48.358;2.122;2024-03-22T01:38:53;101609.50;;;8.79;100.00
76404;BME280;65232;48.358;2.122;2024-03-22T01:39:19;101614.63;;;8.82;100.00
76404;BME280;65232;48.358;2.122;2024-03-22T01:39:46;101615.41;;;8.84;100.00
76404;BME280;65232;48.358;2.122;2024-03-22T01:40:13;101614.47;;;8.85;100.00
76404;BME280;65232;48.358;2.122;2024-03-22T01:40:38;101613.59;;;8.84;100.00
76404;BME280;65232;48.358;2.122;2024-03-22T01:41:04;101619.41;;;8.77;100.00
76404;BME280;65232;48.358;2.122;2024-03-22T01:41:29;101620.66;;;8.71;100.00
76404;BME280;65232;48.358;2.122;2024-03-22T01:41:54;101616.25;;;8.70;100.00
76404;BME280;65232;48.358;2.122;2024-03-22T01:42:20;101615.22;;;8.73;100.00
76404;BME280;65232;48.358;2.122;2024-03-22T01:42:45;101614.47;;;8.71;100.00
76404;BME280;65232;48.358;2.122;2024-03-22T01:43:11;101613.97;;;8.64;100.00
76404;BME280;65232;48.358;2.122;2024-03-22T01:43:36;101620.34;;;8.62;100.00
76404;BME280;65232;48.358;2.122;2024-03-22T01:44:02;101616.53;;;8.66;100.00
76404;BME280;65232;48.358;2.122;2024-03-22T01:44:28;101618.16;;;8.68;100.00
76404;BME280;65232;48.358;2.122;2024-03-22T01:44:54;101625.91;;;8.73;100.00
76404;BME280;65232;48.358;2.122;2024-03-22T01:45:19;101625.81;;;8.74;100.00
76404;BME280;65232;48.358;2.122;2024-03-22T01:45:45;101627.53;;;8.75;100.00
76404;BME280;65232;48.358;2.122;2024-03-22T01:46:11;101621.41;;;8.73;100.00
76404;BME280;65232;48.358;2.122;2024-03-22T01:46:37;101621.41;;;8.73;100.00
76404;BME280;65232;48.358;2.122;2024-03-22T01:47:03;101616.84;;;8.75;100.00
76404;BME280;65232;48.358;2.122;2024-03-22T01:47:28;101628.34;;;8.76;100.00
76404;BME280;65232;48.358;2.122;2024-03-22T01:47:54;101617.31;;;8.68;100.00
76404;BME280;65232;48.358;2.122;2024-03-22T01:48:20;101627.88;;;8.69;100.00
76404;BME280;65232;48.358;2.122;2024-03-22T01:48:45;101625.13;;;8.71;100.00
76404;BME280;65232;48.358;2.122;2024-03-22T01:49:12;101621.09;;;8.64;100.00
76404;BME280;65232;48.358;2.122;2024-03-22T01:49:39;101630.06;;;8.63;100.00
76404;BME280;65232;48.358;2.122;2024-03-22T01:50:06;101619.59;;;8.60;100.00
76404;BME280;65232;48.358;2.122;2024-03-22T01:50:32;101619.88;;;8.55;100.00
76404;BME280;65232;48.358;2.122;2024-03-22T01:50:58;101616.34;;;8.55;100.00
76404;BME280;65232;48.358;2.122;2024-03-22T01:51:23;101622.13;;;8.47;100.00
76404;BME280;65232;48.358;2.122;2024-03-22T01:51:49;101616.72;;;8.48;100.00
76404;BME280;65232;48.358;2.122;2024-03-22T01:52:14;101621.00;;;8.51;100.00
76404;BME280;65232;48.358;2.122;2024-03-22T01:52:40;101621.50;;;8.58;100.00
76404;BME280;65232;48.358;2.122;2024-03-22T01:53:05;101622.47;;;8.57;100.00
76404;BME280;65232;48.358;2.122;2024-03-22T01:53:32;101612.91;;;8.53;100.00
76404;BME280;65232;48.358;2.122;2024-03-22T01:54:01;101619.03;;;8.55;100.00
76404;BME280;65232;48.358;2.122;2024-03-22T01:54:27;101616.53;;;8.52;100.00
76404;BME280;65232;48.358;2.122;2024-03-22T01:54:53;101613.59;;;8.56;100.00
76404;BME280;65232;48.358;2.122;2024-03-22T01:55:18;101613.59;;;8.56;100.00
76404;BME280;65232;48.358;2.122;2024-03-22T01:55:46;101611.47;;;8.61;100.00
76404;BME280;65232;48.358;2.122;2024-03-22T01:56:12;101623.69;;;8.65;100.00
76404;BME280;65232;48.358;2.122;2024-03-22T01:56:38;101617.13;;;8.57;100.00
76404;BME280;65232;48.358;2.122;2024-03-22T01:57:05;101612.56;;;8.59;100.00
76404;BME280;65232;48.358;2.122;2024-03-22T01:57:31;101618.44;;;8.64;100.00
76404;BME280;65232;48.358;2.122;2024-03-22T01:57:56;101618.53;;;8.62;100.00
76404;BME280;65232;48.358;2.122;2024-03-22T01:58:22;101620.66;;;8.57;100.00
76404;BME280;65232;48.358;2.122;2024-03-22T01:58:48;101613.59;;;8.56;100.00
76404;BME280;65232;48.358;2.122;2024-03-22T01:59:14;101618.06;;;8.56;100.00
76404;BME280;65232;48.358;2.122;2024-03-22T01:59:40;101617.03;;;8.58;100.00
76404;BME280;65232;48.358;2.122;2024-03-22T02:00:06;101612.66;;;8.57;100.00
76404;BME280;65232;48.358;2.122;2024-03-22T02:00:39;101616.16;;;8.58;100.00
76404;BME280;65232;48.358;2.122;2024-03-22T02:01:04;101610.63;;;8.61;100.00
76404;BME280;65232;48.358;2.122;2024-03-22T02:01:31;101619.31;;;8.64;100.00
76404;BME280;65232;48.358;2.122;2024-03-22T02:01:56;101614.06;;;8.63;100.00
76404;BME280;65232;48.358;2.122;2024-03-22T02:02:22;101612.06;;;8.66;100.00
76404;BME280;65232;48.358;2.122;2024-03-22T02:02:47;101612.75;;;8.70;100.00
76404;BME280;65232;48.358;2.122;2024-03-22T02:03:13;101615.69;;;8.65;100.00
76404;BME280;65232;48.358;2.122;2024-03-22T02:03:38;101607.13;;;8.60;100.00
76404;BME280;65232;48.358;2.122;2024-03-22T02:04:04;101610.16;;;8.54;100.00
76404;BME280;65232;48.358;2.122;2024-03-22T02:04:29;101616.16;;;8.58;100.00
76404;BME280;65232;48.358;2.122;2024-03-22T02:04:56;101611.59;;;8.60;100.00
76404;BME280;65232;48.358;2.122;2024-03-22T02:05:22;101616.34;;;8.69;100.00
76404;BME280;65232;48.358;2.122;2024-03-22T02:05:49;101608.25;;;8.56;100.00
76404;BME280;65232;48.358;2.122;2024-03-22T02:06:15;101611.97;;;8.54;100.00
76404;BME280;65232;48.358;2.122;2024-03-22T02:06:40;101610.34;;;8.51;100.00
76404;BME280;65232;48.358;2.122;2024-03-22T02:07:06;101603.38;;;8.48;100.00
76404;BME280;65232;48.358;2.122;2024-03-22T02:07:31;101604.81;;;8.54;100.00
76404;BME280;65232;48.358;2.122;2024-03-22T02:07:56;101611.03;;;8.55;100.00
76404;BME280;65232;48.358;2.122;2024-03-22T02:08:22;101603.09;;;8.53;100.00
76404;BME280;65232;48.358;2.122;2024-03-22T02:08:47;101606.72;;;8.52;100.00
76404;BME280;65232;48.358;2.122;2024-03-22T02:09:14;101602.59;;;8.46;100.00
76404;BME280;65232;48.358;2.122;2024-03-22T02:09:40;101603.69;;;8.44;100.00
76404;BME280;65232;48.358;2.122;2024-03-22T02:10:06;101609.75;;;8.46;100.00
76404;BME280;65232;48.358;2.122;2024-03-22T02:10:33;101605.50;;;8.43;100.00
76404;BME280;65232;48.358;2.122;2024-03-22T02:10:58;101603.69;;;8.44;100.00
76404;BME280;65232;48.358;2.122;2024-03-22T02:11:25;101603.47;;;8.47;100.00
76404;BME280;65232;48.358;2.122;2024-03-22T02:11:51;101609.38;;;8.52;100.00
76404;BME280;65232;48.358;2.122;2024-03-22T02:12:17;101611.69;;;8.44;100.00
76404;BME280;65232;48.358;2.122;2024-03-22T02:12:42;101612.31;;;8.47;100.00
76404;BME280;65232;48.358;2.122;2024-03-22T02:13:07;101610.59;;;8.46;100.00
76404;BME280;65232;48.358;2.122;2024-03-22T02:13:33;101608.72;;;8.48;100.00
76404;BME280;65232;48.358;2.122;2024-03-22T02:13:58;101604.53;;;8.44;100.00
76404;BME280;65232;48.358;2.122;2024-03-22T02:14:24;101606.72;;;8.38;100.00